Time;durP1;ratioP1;P1;durP2;ratioP2;P2;SDS_P1;SDS_P2;PMS_P1;PMS_P2;Temp;Humidity;BMP_temperature;BMP_pressure;BME280_temperature;BME280_humidity;BME280_pressure;Samples;Min_cycle;Max_cycle;Signal;HPM_P1;HPM_P2
2021/04/20 00:01:02;;;;;;;10.33;7.43;;;7.80;99.90;;;;;;5065158;28;20474;-51
2021/04/20 00:03:28;;;;;;;11.90;7.50;;;7.80;99.90;;;;;;5072961;28;20748;-51
2021/04/20 00:05:56;;;;;;;10.70;7.03;;;7.90;99.90;;;;;;5071483;28;20469;-51
2021/04/20 00:08:22;;;;;;;9.33;6.33;;;7.90;99.90;;;;;;5071216;28;20563;-51
2021/04/20 00:10:49;;;;;;;10.90;7.73;;;8.00;99.90;;;;;;5071152;28;20508;-50
2021/04/20 00:13:16;;;;;;;11.30;7.13;;;7.90;99.90;;;;;;5071073;28;20482;-51
2021/04/20 00:15:42;;;;;;;10.53;6.80;;;7.90;99.90;;;;;;5071341;28;20486;-50
2021/04/20 00:24:53;;;;;;;10.40;6.63;;;8.00;99.90;;;;;;5055626;28;20819;-51
2021/04/20 00:27:20;;;;;;;10.60;6.70;;;8.00;99.90;;;;;;5070402;28;20449;-51
2021/04/20 00:29:46;;;;;;;10.10;6.47;;;7.80;99.90;;;;;;5074827;28;20554;-51
2021/04/20 00:32:13;;;;;;;12.20;6.80;;;7.70;99.90;;;;;;5074973;28;20482;-50
2021/04/20 00:34:40;;;;;;;10.97;7.07;;;7.60;99.90;;;;;;5074859;28;20849;-51
2021/04/20 00:37:06;;;;;;;11.53;6.57;;;7.70;99.90;;;;;;5074795;28;20468;-51
2021/04/20 00:39:33;;;;;;;8.60;6.07;;;7.70;99.90;;;;;;5073704;28;20453;-50
2021/04/20 00:42:01;;;;;;;15.00;7.70;;;7.70;99.90;;;;;;5075029;28;20480;-50
2021/04/20 00:44:28;;;;;;;13.03;7.17;;;7.70;99.90;;;;;;5074400;28;20940;-51
2021/04/20 00:46:54;;;;;;;12.00;7.70;;;7.40;99.90;;;;;;5074885;28;20869;-51
2021/04/20 00:49:21;;;;;;;13.03;7.70;;;6.90;99.90;;;;;;5074208;28;20485;-50
2021/04/20 00:51:47;;;;;;;10.93;7.30;;;6.50;99.90;;;;;;5074608;28;20471;-51
2021/04/20 00:54:14;;;;;;;10.53;7.00;;;6.70;99.90;;;;;;5074404;28;20447;-51
2021/04/20 00:56:40;;;;;;;9.70;6.60;;;6.90;99.90;;;;;;5074963;28;20461;-50
2021/04/20 00:59:08;;;;;;;9.33;6.40;;;6.80;99.90;;;;;;5074506;28;20451;-50
2021/04/20 01:01:34;;;;;;;8.73;6.53;;;6.80;99.90;;;;;;5074492;28;20975;-51
2021/04/20 01:04:01;;;;;;;9.03;7.03;;;7.00;99.90;;;;;;5074089;28;20974;-51
2021/04/20 01:06:27;;;;;;;11.33;6.63;;;7.10;99.90;;;;;;5074726;28;20504;-51
2021/04/20 01:08:54;;;;;;;13.80;6.43;;;7.10;99.90;;;;;;5073951;28;20877;-51
2021/04/20 01:11:21;;;;;;;13.50;6.80;;;7.10;99.90;;;;;;5074455;28;20475;-51
2021/04/20 01:13:48;;;;;;;10.40;6.40;;;7.10;99.90;;;;;;5073803;28;20487;-51
2021/04/20 01:16:19;;;;;;;11.97;7.60;;;7.10;99.90;;;;;;5074618;28;20971;-50
2021/04/20 01:18:46;;;;;;;10.57;6.70;;;7.00;99.90;;;;;;5074412;28;20444;-51
2021/04/20 01:21:14;;;;;;;10.37;6.60;;;6.80;99.90;;;;;;5073807;28;20515;-51
2021/04/20 01:23:52;;;;;;;9.90;6.80;;;6.90;99.90;;;;;;5073783;28;21901;-51
2021/04/20 01:26:20;;;;;;;11.60;6.57;;;6.80;99.90;;;;;;5074203;28;20530;-51
2021/04/20 01:28:47;;;;;;;9.77;6.03;;;6.90;99.90;;;;;;5073400;28;20959;-51
2021/04/20 01:31:14;;;;;;;10.53;6.60;;;6.70;99.90;;;;;;5073337;28;20467;-50
2021/04/20 01:33:41;;;;;;;9.03;6.30;;;6.50;99.90;;;;;;5073604;28;20482;-50
2021/04/20 01:36:09;;;;;;;9.77;6.40;;;6.70;99.90;;;;;;5073824;28;20447;-51
2021/04/20 01:38:36;;;;;;;9.17;6.20;;;6.70;99.90;;;;;;5073805;28;20448;-51
2021/04/20 01:41:02;;;;;;;8.87;6.50;;;6.70;99.90;;;;;;5073642;28;20918;-51
2021/04/20 01:43:30;;;;;;;8.73;6.20;;;6.70;99.90;;;;;;5073246;28;20944;-50
2021/04/20 01:45:57;;;;;;;8.60;6.20;;;6.70;99.90;;;;;;5065886;28;20830;-50
2021/04/20 01:48:23;;;;;;;10.20;6.63;;;6.70;99.90;;;;;;5073711;28;20443;-50
2021/04/20 01:50:50;;;;;;;9.10;6.27;;;6.70;99.90;;;;;;5073443;28;20454;-50
2021/04/20 01:53:17;;;;;;;9.60;6.10;;;6.70;99.90;;;;;;5073233;28;20486;-50
2021/04/20 01:55:43;;;;;;;8.70;5.93;;;6.70;99.90;;;;;;5073655;28;20454;-51
2021/04/20 01:58:11;;;;;;;11.63;6.67;;;6.70;99.90;;;;;;5073458;28;20451;-50
2021/04/20 02:00:39;;;;;;;9.50;6.20;;;6.70;99.90;;;;;;5073128;28;20447;-49
2021/04/20 02:03:09;;;;;;;7.90;6.10;;;6.70;99.90;;;;;;5072669;28;20458;-51
2021/04/20 02:05:36;;;;;;;10.70;6.93;;;6.70;99.90;;;;;;5073203;28;20972;-50
2021/04/20 02:08:03;;;;;;;8.80;6.20;;;6.60;99.90;;;;;;5072771;28;21029;-51
2021/04/20 02:10:31;;;;;;;10.03;6.93;;;6.60;99.90;;;;;;5073317;28;20840;-51
2021/04/20 02:12:58;;;;;;;9.23;5.93;;;6.50;99.90;;;;;;5072240;28;20991;-50
2021/04/20 02:15:24;;;;;;;11.00;6.30;;;6.50;99.90;;;;;;5072303;28;20451;-50
2021/04/20 02:17:54;;;;;;;10.40;6.63;;;6.50;99.90;;;;;;5073049;28;20455;-51
2021/04/20 02:20:21;;;;;;;10.57;7.03;;;6.50;99.90;;;;;;5073010;28;20456;-50
2021/04/20 02:22:49;;;;;;;9.43;6.57;;;6.40;99.90;;;;;;5072302;28;20556;-50
2021/04/20 02:25:18;;;;;;;10.17;7.30;;;6.30;99.90;;;;;;5072875;28;20447;-51
2021/04/20 02:27:47;;;;;;;9.67;6.73;;;6.40;99.90;;;;;;5072770;28;20447;-50
2021/04/20 02:30:15;;;;;;;12.00;7.10;;;6.40;99.90;;;;;;5073223;28;20474;-50
2021/04/20 02:32:42;;;;;;;9.80;6.80;;;6.40;99.90;;;;;;5072217;28;20560;-51
2021/04/20 02:35:12;;;;;;;9.60;6.77;;;6.50;99.90;;;;;;5072788;28;20806;-51
2021/04/20 02:54:30;;;;;;;10.20;6.70;;;6.50;99.90;;;;;;5072738;28;20457;-50
2021/04/20 02:56:59;;;;;;;10.17;6.83;;;6.60;99.90;;;;;;5072299;28;20447;-51
2021/04/20 02:59:27;;;;;;;10.40;7.93;;;6.60;99.90;;;;;;5072162;28;20948;-51
2021/04/20 03:01:54;;;;;;;13.10;7.67;;;6.60;99.90;;;;;;5072278;28;20459;-50
2021/04/20 03:04:21;;;;;;;10.70;7.00;;;6.50;99.90;;;;;;5071788;28;20443;-51
2021/04/20 03:06:47;;;;;;;13.17;7.50;;;6.20;99.90;;;;;;5071768;28;20812;-51
2021/04/20 03:09:14;;;;;;;14.37;9.13;;;6.10;99.90;;;;;;5071733;28;20443;-51
2021/04/20 03:11:44;;;;;;;12.90;9.47;;;6.20;99.90;;;;;;5072056;28;20489;-51
2021/04/20 03:14:11;;;;;;;12.43;8.87;;;6.30;99.90;;;;;;5072055;28;20999;-51
2021/04/20 03:16:37;;;;;;;13.37;8.60;;;6.30;99.90;;;;;;5071725;28;21002;-51
2021/04/20 03:19:05;;;;;;;12.77;8.50;;;6.30;99.90;;;;;;5071819;28;20513;-50
2021/04/20 03:21:33;;;;;;;15.70;9.00;;;6.30;99.90;;;;;;5071774;28;20475;-51
2021/04/20 03:24:02;;;;;;;12.03;7.97;;;6.20;99.90;;;;;;5071850;28;20500;-51
2021/04/20 03:26:39;;;;;;;14.67;8.27;;;6.20;99.90;;;;;;5071550;28;20451;-51
2021/04/20 03:29:09;;;;;;;12.60;8.70;;;6.30;99.90;;;;;;5071410;28;20454;-51
2021/04/20 03:31:38;;;;;;;14.63;8.37;;;6.30;99.90;;;;;;5071852;28;20991;-51
2021/04/20 03:34:14;;;;;;;11.20;7.37;;;6.20;99.90;;;;;;5071557;28;20483;-50
2021/04/20 03:36:45;;;;;;;14.27;8.47;;;6.20;99.90;;;;;;5070839;28;20527;-51
2021/04/20 03:39:16;;;;;;;14.70;8.17;;;6.10;99.90;;;;;;5071366;28;20449;-51
2021/04/20 03:41:49;;;;;;;12.57;7.87;;;6.10;99.90;;;;;;5071867;28;20462;-51
2021/04/20 03:44:22;;;;;;;11.90;7.80;;;6.00;99.90;;;;;;5072126;28;20451;-51
2021/04/20 03:46:51;;;;;;;12.07;7.77;;;5.90;99.90;;;;;;5070870;28;20450;-51
2021/04/20 03:49:22;;;;;;;12.80;8.30;;;5.80;99.90;;;;;;5071479;28;20820;-51
2021/04/20 03:51:53;;;;;;;14.00;7.20;;;5.80;99.90;;;;;;5071923;28;20477;-51
2021/04/20 03:54:23;;;;;;;10.50;7.37;;;5.90;99.90;;;;;;5070852;28;20474;-49
2021/04/20 03:56:52;;;;;;;15.80;7.50;;;5.90;99.90;;;;;;5069612;28;20986;-50
2021/04/20 03:59:21;;;;;;;12.23;7.47;;;5.90;99.90;;;;;;5071305;28;20512;-51
2021/04/20 04:01:50;;;;;;;12.77;7.77;;;5.90;99.90;;;;;;5071150;28;20991;-50
2021/04/20 04:04:19;;;;;;;10.90;7.33;;;5.90;99.90;;;;;;5062976;28;20450;-51
2021/04/20 04:06:47;;;;;;;10.30;6.90;;;5.90;99.90;;;;;;5071351;28;20446;-51
2021/04/20 04:09:15;;;;;;;12.20;7.43;;;6.00;99.90;;;;;;5071482;28;20455;-50
2021/04/20 04:11:47;;;;;;;11.13;7.33;;;6.00;99.90;;;;;;5071604;28;20475;-50
2021/04/20 04:14:17;;;;;;;11.73;7.13;;;6.00;99.90;;;;;;5071141;28;20559;-50
2021/04/20 04:16:46;;;;;;;10.60;7.43;;;6.00;99.90;;;;;;5070393;28;20453;-50
2021/04/20 04:19:14;;;;;;;13.83;8.20;;;6.00;99.90;;;;;;5071053;28;20501;-50
2021/04/20 04:21:44;;;;;;;13.55;7.70;;;5.90;99.90;;;;;;5096006;22;21039;-53
2021/04/20 04:24:13;;;;;;;16.13;8.70;;;5.80;99.90;;;;;;5089677;28;20461;-53
2021/04/20 04:26:45;;;;;;;12.53;8.17;;;5.80;99.90;;;;;;5090413;28;20457;-53
2021/04/20 04:29:14;;;;;;;12.30;8.10;;;5.70;99.90;;;;;;5090126;28;20441;-53
2021/04/20 04:31:44;;;;;;;13.43;8.47;;;5.70;99.90;;;;;;5089559;28;20446;-53
2021/04/20 04:34:13;;;;;;;12.73;8.40;;;5.80;99.90;;;;;;5070478;28;20594;-53
2021/04/20 04:36:41;;;;;;;16.67;8.00;;;5.80;99.90;;;;;;5070855;28;20446;-53
2021/04/20 04:39:13;;;;;;;15.10;9.00;;;5.80;99.90;;;;;;5070487;28;20443;-53
2021/04/20 04:41:40;;;;;;;18.87;10.10;;;5.90;99.90;;;;;;5050920;28;20833;-53
2021/04/20 04:44:09;;;;;;;13.63;9.00;;;5.80;99.90;;;;;;5058814;28;20455;-53
2021/04/20 04:46:36;;;;;;;14.77;8.97;;;5.90;99.90;;;;;;5069984;28;20446;-53
2021/04/20 04:49:02;;;;;;;14.73;8.67;;;5.80;99.90;;;;;;5070600;28;20443;-53
2021/04/20 04:51:30;;;;;;;13.90;8.90;;;5.80;99.90;;;;;;5070656;28;20442;-53
2021/04/20 04:53:58;;;;;;;16.67;8.70;;;5.80;99.90;;;;;;5070487;28;20490;-53
2021/04/20 04:56:25;;;;;;;16.43;8.07;;;5.70;99.90;;;;;;5070366;28;20459;-53
2021/04/20 04:58:54;;;;;;;15.23;8.80;;;5.70;99.90;;;;;;5070524;28;20881;-53
2021/04/20 05:01:21;;;;;;;13.30;8.30;;;5.70;99.90;;;;;;5070564;28;20462;-53
2021/04/20 05:03:48;;;;;;;15.40;8.70;;;5.80;99.90;;;;;;5067862;28;20988;-53
2021/04/20 05:06:16;;;;;;;13.50;8.50;;;5.90;99.90;;;;;;5072327;28;20540;-53
2021/04/20 05:08:44;;;;;;;14.10;8.87;;;5.90;99.90;;;;;;5072697;28;20454;-53
2021/04/20 05:11:13;;;;;;;14.60;9.60;;;6.00;99.90;;;;;;5074115;28;20442;-53
2021/04/20 05:13:39;;;;;;;12.83;8.23;;;6.00;99.90;;;;;;5073980;28;20901;-53
2021/04/20 05:16:07;;;;;;;11.37;7.70;;;6.10;99.90;;;;;;5066830;28;20454;-53
2021/04/20 05:18:35;;;;;;;16.53;9.50;;;6.30;99.90;;;;;;5053837;28;20506;-53
2021/04/20 05:21:02;;;;;;;14.83;9.83;;;6.30;99.90;;;;;;5054407;28;20797;-53
2021/04/20 05:23:28;;;;;;;15.70;10.13;;;6.30;99.90;;;;;;5072597;28;20532;-53
2021/04/20 05:25:56;;;;;;;12.67;9.47;;;6.30;99.90;;;;;;5067875;28;20444;-53
2021/04/20 05:28:23;;;;;;;12.17;8.10;;;6.40;99.90;;;;;;5058628;28;20446;-53
2021/04/20 05:30:53;;;;;;;16.03;8.63;;;6.60;99.90;;;;;;5073540;28;20462;-53
2021/04/20 05:33:19;;;;;;;12.50;8.67;;;6.70;99.90;;;;;;5073053;28;20485;-53
2021/04/20 05:35:46;;;;;;;15.30;8.83;;;6.80;99.90;;;;;;5073772;28;20455;-53
2021/04/20 05:38:12;;;;;;;18.60;8.50;;;6.90;99.90;;;;;;5073428;28;20446;-53
2021/04/20 05:40:41;;;;;;;17.07;8.67;;;6.90;99.90;;;;;;5073001;28;20509;-53
2021/04/20 05:43:09;;;;;;;23.53;10.07;;;7.00;99.90;;;;;;5071346;28;20463;-53
2021/04/20 05:45:35;;;;;;;17.53;9.30;;;7.30;99.90;;;;;;5073409;28;20446;-53
2021/04/20 05:48:02;;;;;;;13.47;8.50;;;7.90;99.90;;;;;;5073415;28;20443;-54
2021/04/20 05:50:30;;;;;;;11.40;8.07;;;9.00;99.90;;;;;;5073384;28;20447;-54
2021/04/20 05:52:58;;;;;;;17.00;8.53;;;10.30;99.90;;;;;;5073191;28;20483;-53
2021/04/20 05:55:25;;;;;;;12.10;7.87;;;11.50;99.90;;;;;;5072819;28;20956;-54
2021/04/20 05:57:53;;;;;;;13.27;8.53;;;12.40;99.90;;;;;;5073056;28;20458;-54
2021/04/20 06:00:23;;;;;;;11.60;7.70;;;13.20;99.90;;;;;;5073066;28;20447;-53
2021/04/20 06:02:51;;;;;;;12.57;9.00;;;13.50;99.90;;;;;;5072061;28;20481;-53
2021/04/20 06:05:20;;;;;;;17.30;11.10;;;12.10;99.90;;;;;;5072049;28;20505;-53
2021/04/20 06:07:49;;;;;;;17.97;10.20;;;11.10;99.90;;;;;;5072261;28;20874;-53
2021/04/20 06:10:16;;;;;;;19.00;10.60;;;10.80;99.90;;;;;;5073155;28;20792;-53
2021/04/20 06:12:44;;;;;;;14.70;9.90;;;10.80;99.90;;;;;;5072970;28;20946;-53
2021/04/20 06:15:12;;;;;;;16.43;10.13;;;11.40;99.90;;;;;;5073155;28;20438;-54
2021/04/20 06:17:39;;;;;;;14.33;9.70;;;12.20;99.90;;;;;;5072282;28;20450;-54
2021/04/20 06:20:10;;;;;;;13.17;9.30;;;12.90;99.90;;;;;;5073251;28;20799;-54
2021/04/20 06:22:37;;;;;;;15.63;9.07;;;13.50;99.90;;;;;;5072718;28;20485;-54
2021/04/20 06:25:08;;;;;;;17.63;9.80;;;13.30;99.90;;;;;;5072892;28;20945;-54
2021/04/20 06:27:35;;;;;;;16.07;9.27;;;13.00;99.90;;;;;;5072787;28;20803;-54
2021/04/20 06:30:01;;;;;;;16.57;10.10;;;13.70;99.90;;;;;;5064207;28;20443;-54
2021/04/20 06:32:28;;;;;;;17.33;10.23;;;13.70;99.90;;;;;;5068425;28;20477;-54
2021/04/20 06:34:56;;;;;;;16.00;10.17;;;14.40;99.90;;;;;;5072603;28;20447;-54
2021/04/20 06:37:22;;;;;;;16.97;9.87;;;15.20;99.90;;;;;;5072158;28;20447;-54
2021/04/20 06:39:49;;;;;;;14.37;8.83;;;16.00;99.90;;;;;;5072606;28;20819;-54
2021/04/20 06:42:20;;;;;;;11.80;8.13;;;16.40;99.90;;;;;;5072538;28;20968;-54
2021/04/20 06:44:56;;;;;;;13.20;9.30;;;16.50;99.90;;;;;;5072650;28;20477;-54
2021/04/20 06:47:27;;;;;;;12.27;8.60;;;14.80;99.90;;;;;;5072091;28;20518;-54
2021/04/20 06:50:00;;;;;;;14.83;9.73;;;15.60;99.90;;;;;;5071900;28;20507;-54
2021/04/20 06:52:38;;;;;;;14.32;8.75;;;15.40;99.90;;;;;;5054003;28;20700;-54
2021/04/20 06:55:10;;;;;;;9.13;7.30;;;16.00;99.90;;;;;;5063414;28;20815;-55
2021/04/20 06:57:39;;;;;;;10.77;7.77;;;16.30;98.80;;;;;;5071708;28;20511;-54
2021/04/20 07:00:12;;;;;;;12.57;7.93;;;16.80;99.50;;;;;;5071922;28;20485;-55
2021/04/20 07:02:49;;;;;;;11.40;8.20;;;17.20;97.30;;;;;;5071653;28;20463;-54
2021/04/20 07:05:24;;;;;;;8.43;7.00;;;16.90;99.00;;;;;;5071588;28;20501;-55
2021/04/20 07:08:18;;;;;;;12.73;7.20;;;16.80;97.70;;;;;;5070336;28;20571;-55
2021/04/20 07:10:46;;;;;;;11.67;7.17;;;17.20;97.00;;;;;;5055076;28;20455;-54
2021/04/20 07:13:18;;;;;;;9.20;7.53;;;17.50;97.00;;;;;;5068283;28;20497;-54
2021/04/20 07:15:49;;;;;;;9.40;7.87;;;17.40;96.70;;;;;;5070145;28;20451;-54
2021/04/20 07:18:47;;;;;;;9.47;7.83;;;17.60;97.00;;;;;;5067989;28;20462;-54
2021/04/20 07:21:33;;;;;;;10.30;7.63;;;17.20;98.10;;;;;;5056887;28;20505;-54
2021/04/20 07:24:18;;;;;;;9.00;6.90;;;17.50;96.60;;;;;;5067863;28;20461;-55
2021/04/20 07:26:56;;;;;;;10.07;7.40;;;17.30;94.60;;;;;;5064355;28;20936;-54
2021/04/20 07:29:31;;;;;;;8.80;7.47;;;17.10;94.60;;;;;;5064275;28;20951;-54
2021/04/20 07:32:08;;;;;;;8.80;7.07;;;17.30;94.60;;;;;;5064388;28;20466;-55
2021/04/20 07:34:41;;;;;;;8.90;6.93;;;17.80;96.00;;;;;;5071214;28;20482;-55
2021/04/20 07:37:30;;;;;;;10.73;7.70;;;18.00;94.50;;;;;;5069038;28;20451;-55
2021/04/20 07:40:09;;;;;;;11.80;8.00;;;18.40;93.50;;;;;;5068603;28;20460;-54
2021/04/20 07:42:51;;;;;;;9.20;7.50;;;17.90;94.70;;;;;;5071168;28;20562;-55
2021/04/20 07:45:26;;;;;;;9.47;7.30;;;18.20;94.10;;;;;;5070846;28;20500;-54
2021/04/20 07:47:59;;;;;;;11.27;8.10;;;18.00;93.40;;;;;;5069116;28;20485;-54
2021/04/20 07:50:33;;;;;;;10.30;7.57;;;18.60;95.00;;;;;;5070760;28;20458;-54
2021/04/20 07:53:09;;;;;;;9.90;6.60;;;19.00;92.40;;;;;;5070922;28;20556;-55
2021/04/20 07:55:46;;;;;;;8.13;6.67;;;18.90;93.00;;;;;;5070940;28;20964;-55
2021/04/20 07:58:19;;;;;;;9.00;7.30;;;19.10;92.80;;;;;;5068889;28;20446;-55
2021/04/20 08:00:51;;;;;;;10.10;7.40;;;18.90;92.40;;;;;;5068574;28;21102;-55
2021/04/20 08:03:24;;;;;;;8.70;7.10;;;19.40;91.40;;;;;;5068502;28;20553;-55
2021/04/20 08:05:55;;;;;;;8.00;7.03;;;19.50;90.70;;;;;;5070504;28;20535;-55
2021/04/20 08:08:28;;;;;;;8.80;7.40;;;19.60;91.40;;;;;;5069217;28;20451;-55
2021/04/20 08:10:59;;;;;;;7.33;6.60;;;19.40;93.00;;;;;;5070506;28;20447;-55
2021/04/20 08:13:35;;;;;;;9.37;7.70;;;19.60;90.40;;;;;;5069319;28;20487;-54
2021/04/20 08:16:07;;;;;;;8.97;6.70;;;18.40;91.10;;;;;;5070186;28;20486;-55
2021/04/20 08:18:40;;;;;;;10.77;6.83;;;17.80;92.80;;;;;;5069894;28;20454;-54
2021/04/20 08:21:08;;;;;;;11.67;7.60;;;17.40;93.50;;;;;;5071374;28;20451;-54
2021/04/20 08:23:40;;;;;;;12.47;7.47;;;17.40;93.60;;;;;;5071106;28;20568;-54
2021/04/20 08:26:13;;;;;;;8.70;7.10;;;17.10;94.10;;;;;;5070909;28;20478;-54
2021/04/20 08:28:47;;;;;;;13.33;9.03;;;17.10;92.80;;;;;;5070606;28;20470;-54
2021/04/20 08:31:20;;;;;;;9.80;7.47;;;16.90;94.70;;;;;;5070539;28;20451;-54
2021/04/20 08:33:53;;;;;;;8.70;7.50;;;17.20;95.10;;;;;;5071141;28;20475;-54
2021/04/20 08:36:35;;;;;;;10.60;7.73;;;17.40;93.40;;;;;;5071080;28;20961;-54
2021/04/20 08:39:15;;;;;;;9.33;7.77;;;17.70;91.10;;;;;;5071088;28;20454;-54
2021/04/20 08:41:45;;;;;;;9.23;7.07;;;16.90;94.10;;;;;;5075060;28;20852;-54
2021/04/20 08:44:21;;;;;;;12.60;7.70;;;17.10;94.00;;;;;;5074969;28;20446;-54
2021/04/20 08:46:56;;;;;;;9.50;7.17;;;16.90;92.60;;;;;;5075010;28;20469;-54
2021/04/20 08:49:35;;;;;;;12.60;8.80;;;16.80;94.80;;;;;;5074673;28;20451;-54
2021/04/20 08:52:03;;;;;;;14.13;9.40;;;17.10;93.90;;;;;;5074753;28;20470;-54
2021/04/20 08:55:14;;;;;;;11.20;8.63;;;16.70;95.90;;;;;;5074688;28;20850;-53
2021/04/20 08:57:57;;;;;;;10.80;9.23;;;17.20;94.20;;;;;;5012628;28;20449;-54
2021/04/20 09:00:28;;;;;;;12.67;9.50;;;17.50;95.40;;;;;;5012739;28;20457;-54
2021/04/20 09:03:04;;;;;;;13.10;9.37;;;17.60;93.90;;;;;;5040569;28;20471;-54
2021/04/20 09:05:35;;;;;;;13.10;9.70;;;16.90;96.80;;;;;;5060575;28;20537;-54
2021/04/20 09:08:24;;;;;;;13.10;10.33;;;16.50;97.70;;;;;;5074039;28;20450;-54
2021/04/20 09:10:56;;;;;;;13.10;10.10;;;16.40;97.40;;;;;;5074238;28;20442;-53
2021/04/20 09:13:27;;;;;;;18.03;10.13;;;16.10;97.90;;;;;;5074309;28;20992;-54
2021/04/20 09:15:58;;;;;;;13.70;9.97;;;15.90;98.20;;;;;;5074227;28;20446;-53
2021/04/20 09:18:33;;;;;;;15.70;9.30;;;15.20;97.80;;;;;;5074090;28;20450;-54
2021/04/20 09:21:02;;;;;;;10.70;7.43;;;15.70;98.10;;;;;;5072700;28;20500;-54
2021/04/20 09:23:45;;;;;;;9.47;7.50;;;16.50;93.80;;;;;;5073685;28;20536;-54
2021/04/20 09:26:29;;;;;;;11.50;8.03;;;17.40;93.40;;;;;;5074097;28;20816;-54
2021/04/20 09:29:00;;;;;;;10.40;8.30;;;17.70;95.50;;;;;;5073846;28;20457;-54
2021/04/20 09:31:34;;;;;;;12.50;8.50;;;17.60;96.90;;;;;;5072956;28;20455;-54
2021/04/20 09:34:03;;;;;;;11.90;8.83;;;18.60;93.70;;;;;;5074110;28;20500;-54
2021/04/20 09:36:31;;;;;;;11.20;8.33;;;18.70;92.30;;;;;;5073370;28;20501;-54
2021/04/20 09:39:01;;;;;;;10.60;8.20;;;18.20;92.40;;;;;;5074006;28;20447;-54
2021/04/20 09:41:32;;;;;;;9.40;7.80;;;18.60;95.40;;;;;;5073921;28;20459;-54
2021/04/20 09:44:09;;;;;;;10.30;8.60;;;19.60;91.60;;;;;;5073937;28;20513;-54
2021/04/20 09:46:49;;;;;;;10.60;8.37;;;19.40;92.00;;;;;;5073850;28;20533;-54
2021/04/20 09:49:30;;;;;;;10.20;8.40;;;19.20;90.30;;;;;;5073932;28;20543;-54
2021/04/20 09:52:02;;;;;;;12.32;9.50;;;19.20;91.10;;;;;;5049929;28;20440;-54
2021/04/20 09:54:36;;;;;;;9.97;8.93;;;19.40;91.40;;;;;;5069932;28;20705;-54
2021/04/20 09:57:08;;;;;;;9.30;8.00;;;19.50;91.50;;;;;;5073419;28;20465;-54
2021/04/20 09:59:40;;;;;;;12.10;9.53;;;19.90;90.60;;;;;;5073111;28;20928;-54
2021/04/20 10:02:35;;;;;;;9.77;7.80;;;19.50;90.40;;;;;;5073614;28;20462;-54
2021/04/20 10:05:10;;;;;;;11.93;9.00;;;19.90;90.80;;;;;;5047531;28;20454;-54
2021/04/20 10:08:04;;;;;;;12.10;8.67;;;19.60;93.60;;;;;;5072183;28;20511;-53
2021/04/20 10:10:41;;;;;;;11.97;9.10;;;20.10;87.50;;;;;;5052672;28;20973;-54
2021/04/20 10:13:22;;;;;;;11.60;8.60;;;20.40;88.00;;;;;;5058762;28;20987;-54
2021/04/20 10:16:00;;;;;;;10.37;8.50;;;20.40;83.90;;;;;;5072302;28;20468;-54
2021/04/20 10:18:40;;;;;;;11.50;9.10;;;18.70;91.50;;;;;;5059547;28;20447;-55
2021/04/20 10:21:13;;;;;;;11.93;9.23;;;18.90;91.40;;;;;;5067018;28;20476;-54
2021/04/20 10:23:51;;;;;;;10.33;8.47;;;18.80;93.20;;;;;;5072766;28;20482;-54
2021/04/20 10:26:26;;;;;;;11.33;8.80;;;19.20;88.60;;;;;;5072847;28;20469;-53
2021/04/20 10:28:57;;;;;;;10.40;8.27;;;18.20;93.10;;;;;;5072590;28;20438;-54
2021/04/20 10:31:30;;;;;;;16.37;8.47;;;17.00;93.00;;;;;;5072500;28;20477;-54
2021/04/20 10:33:57;;;;;;;9.70;7.87;;;16.40;93.00;;;;;;5072744;28;20486;-54
2021/04/20 10:36:26;;;;;;;10.03;7.70;;;17.00;91.50;;;;;;5072766;28;20560;-54
2021/04/20 10:38:56;;;;;;;9.13;7.37;;;17.40;91.40;;;;;;5072707;28;20852;-54
2021/04/20 10:41:25;;;;;;;9.70;7.43;;;17.80;93.70;;;;;;5072338;28;20454;-54
2021/04/20 10:43:54;;;;;;;9.77;8.00;;;18.30;89.60;;;;;;5072729;28;20466;-54
2021/04/20 10:46:24;;;;;;;10.20;7.90;;;18.50;90.20;;;;;;5072206;28;20982;-53
2021/04/20 10:48:53;;;;;;;12.00;7.10;;;17.80;92.20;;;;;;5071828;28;20447;-54
2021/04/20 10:51:30;;;;;;;8.93;7.37;;;17.70;92.00;;;;;;5096202;22;20447;-54
2021/04/20 10:53:58;;;;;;;10.23;7.60;;;18.00;91.70;;;;;;5027641;28;21120;-52
2021/04/20 10:56:26;;;;;;;9.13;7.10;;;17.70;90.50;;;;;;5032175;28;20453;-52
2021/04/20 10:58:56;;;;;;;8.10;6.47;;;17.50;92.80;;;;;;5031998;28;20452;-52
2021/04/20 11:01:28;;;;;;;9.10;7.60;;;17.30;93.00;;;;;;5032200;28;20459;-51
2021/04/20 11:03:57;;;;;;;10.60;7.13;;;16.90;94.40;;;;;;5046716;28;21309;-51
2021/04/20 11:06:43;;;;;;;10.70;7.27;;;16.30;91.60;;;;;;5052975;28;20444;-51
2021/04/20 11:09:10;;;;;;;10.20;7.70;;;16.70;90.30;;;;;;5052221;28;20448;-52
2021/04/20 11:11:38;;;;;;;11.73;7.33;;;16.80;90.50;;;;;;5042983;28;20519;-52
2021/04/20 11:14:06;;;;;;;10.97;7.17;;;16.60;92.60;;;;;;5032264;28;20504;-51
2021/04/20 11:16:37;;;;;;;10.53;7.40;;;16.70;91.30;;;;;;5032075;28;20506;-52
2021/04/20 11:19:08;;;;;;;11.87;8.30;;;16.60;92.80;;;;;;5032352;28;20464;-52
2021/04/20 11:21:37;;;;;;;8.53;6.43;;;16.30;94.50;;;;;;5032000;28;20456;-51
2021/04/20 11:24:09;;;;;;;12.60;7.70;;;16.90;92.70;;;;;;5032370;28;20443;-52
2021/04/20 11:26:40;;;;;;;10.07;7.67;;;17.00;94.60;;;;;;5032326;28;20463;-52
2021/04/20 11:29:12;;;;;;;10.73;7.90;;;16.50;94.30;;;;;;5032126;28;20444;-51
2021/04/20 11:31:45;;;;;;;9.77;7.07;;;16.40;95.20;;;;;;5030041;28;20479;-52
2021/04/20 11:34:16;;;;;;;14.20;7.47;;;16.00;95.70;;;;;;5012461;28;20886;-51
2021/04/20 11:36:46;;;;;;;8.83;6.87;;;16.30;91.10;;;;;;5023206;28;20452;-51
2021/04/20 11:39:18;;;;;;;12.50;7.90;;;17.10;94.00;;;;;;5030782;28;20943;-51
2021/04/20 11:41:54;;;;;;;9.40;7.07;;;17.10;91.90;;;;;;5031422;28;20481;-51
2021/04/20 11:44:23;;;;;;;7.97;6.10;;;17.40;92.20;;;;;;5037679;28;20439;-51
2021/04/20 11:46:50;;;;;;;8.57;6.63;;;17.50;90.80;;;;;;5031602;28;20456;-52
2021/04/20 11:49:22;;;;;;;9.57;7.20;;;17.90;92.00;;;;;;5028934;28;20441;-51
2021/04/20 11:51:51;;;;;;;7.43;6.03;;;17.50;87.80;;;;;;5028943;28;20234;-51
2021/04/20 11:54:22;;;;;;;8.87;6.93;;;17.00;91.50;;;;;;5011758;28;20489;-51
2021/04/20 11:56:53;;;;;;;8.50;6.47;;;17.10;87.40;;;;;;5027873;28;20459;-51
2021/04/20 11:59:22;;;;;;;8.10;6.63;;;17.50;90.30;;;;;;5051619;28;20552;-50
2021/04/20 12:01:49;;;;;;;9.63;6.77;;;17.40;87.50;;;;;;5048974;28;20471;-51
2021/04/20 12:04:22;;;;;;;10.70;7.30;;;17.70;90.90;;;;;;5030349;28;20453;-51
2021/04/20 12:06:51;;;;;;;7.90;5.90;;;17.50;90.70;;;;;;5029969;28;20455;-51
2021/04/20 12:09:20;;;;;;;8.73;7.00;;;17.60;88.80;;;;;;5030739;28;20452;-51
2021/04/20 12:11:48;;;;;;;8.93;6.37;;;17.00;92.70;;;;;;5030907;28;20488;-51
2021/04/20 12:14:18;;;;;;;8.93;6.57;;;17.10;92.70;;;;;;5031135;28;20477;-51
2021/04/20 12:16:47;;;;;;;9.27;7.03;;;16.90;92.60;;;;;;5035148;28;20464;-51
2021/04/20 12:19:17;;;;;;;12.00;7.77;;;16.90;92.30;;;;;;5034940;28;20457;-51
2021/04/20 12:21:47;;;;;;;10.00;6.87;;;17.20;90.10;;;;;;5035332;28;20471;-52
2021/04/20 12:24:18;;;;;;;11.40;7.10;;;16.80;92.60;;;;;;5034950;28;20452;-52
2021/04/20 12:26:50;;;;;;;8.77;6.63;;;17.00;90.10;;;;;;5040808;28;20452;-51
2021/04/20 12:29:20;;;;;;;8.60;6.47;;;17.10;91.70;;;;;;5034863;28;20586;-51
2021/04/20 12:31:48;;;;;;;8.77;6.37;;;17.10;90.60;;;;;;5035066;28;20470;-50
2021/04/20 12:34:15;;;;;;;9.10;5.87;;;16.50;90.60;;;;;;5034930;28;20484;-50
2021/04/20 12:36:47;;;;;;;7.20;5.73;;;16.50;90.60;;;;;;5035109;28;20453;-50
2021/04/20 12:39:17;;;;;;;8.30;6.50;;;15.80;91.40;;;;;;5035046;28;20451;-50
2021/04/20 12:41:50;;;;;;;9.43;6.80;;;15.90;94.00;;;;;;5034931;28;20472;-52
2021/04/20 12:44:21;;;;;;;6.80;5.57;;;16.10;91.00;;;;;;5037348;28;20946;-50
2021/04/20 12:46:53;;;;;;;7.90;5.60;;;16.10;91.40;;;;;;5035109;28;20811;-49
2021/04/20 12:49:22;;;;;;;8.33;5.87;;;16.60;90.20;;;;;;5034811;28;20859;-51
2021/04/20 12:51:50;;;;;;;7.50;5.10;;;16.60;87.70;;;;;;5034506;28;20571;-52
2021/04/20 12:54:19;;;;;;;7.73;5.80;;;16.80;87.50;;;;;;5034586;28;20480;-52
2021/04/20 12:56:48;;;;;;;6.33;5.20;;;16.80;89.80;;;;;;5033118;28;20532;-52
2021/04/20 12:59:20;;;;;;;5.70;4.73;;;17.10;85.90;;;;;;5034329;28;20452;-51
2021/04/20 13:01:50;;;;;;;4.60;3.90;;;17.30;85.90;;;;;;5034940;28;20875;-51
2021/04/20 13:04:24;;;;;;;6.50;4.10;;;17.40;85.10;;;;;;5034249;28;20445;-51
2021/04/20 13:06:51;;;;;;;7.07;4.87;;;17.50;83.00;;;;;;5034638;28;20448;-50
2021/04/20 13:09:24;;;;;;;6.13;5.00;;;17.60;82.40;;;;;;5034670;28;20459;-52
2021/04/20 13:11:53;;;;;;;7.23;6.20;;;17.50;85.20;;;;;;5034446;28;20559;-51
2021/04/20 13:14:22;;;;;;;6.70;5.60;;;17.10;90.20;;;;;;5034539;28;20492;-52
2021/04/20 13:16:53;;;;;;;7.70;5.93;;;16.80;87.20;;;;;;5050113;28;20451;-51
2021/04/20 13:19:25;;;;;;;6.90;5.97;;;17.00;85.70;;;;;;5053987;28;20448;-52
2021/04/20 13:21:53;;;;;;;6.63;5.27;;;16.80;86.10;;;;;;5052308;28;20471;-52
2021/04/20 13:24:20;;;;;;;7.10;5.20;;;17.00;90.00;;;;;;5034364;28;20494;-52